Time;durP1;ratioP1;P1;durP2;ratioP2;P2;SDS_P1;SDS_P2;PMS_P1;PMS_P2;Temp;Humidity;BMP_temperature;BMP_pressure;BME280_temperature;BME280_humidity;BME280_pressure;Samples;Min_cycle;Max_cycle;Signal;HPM_P1;HPM_P2
2023/10/06 00:01:52;;;;;;;8.40;2.30;;;;;;;8.17;100.00;100346.94;109514;1252;71403;-68
2023/10/06 00:04:41;;;;;;;8.90;1.80;;;;;;;8.14;100.00;100343.98;109553;1252;58279;-65
2023/10/06 00:07:28;;;;;;;8.40;1.70;;;;;;;8.18;100.00;100346.20;109603;1253;60532;-65
2023/10/06 00:10:22;;;;;;;6.50;1.60;;;;;;;8.18;100.00;100351.46;109540;1254;73227;-66
2023/10/06 00:13:29;;;;;;;6.40;1.80;;;;;;;8.19;100.00;100351.76;109533;1252;68136;-66
2023/10/06 00:16:18;;;;;;;5.50;1.50;;;;;;;8.19;100.00;100354.27;109459;1252;71444;-66
2023/10/06 00:19:31;;;;;;;8.40;1.70;;;;;;;8.18;100.00;100356.77;109449;1253;58274;-67
2023/10/06 00:22:19;;;;;;;8.00;2.00;;;;;;;8.18;100.00;100355.38;109480;1252;61341;-66
2023/10/06 00:25:18;;;;;;;6.30;1.70;;;;;;;8.18;100.00;100358.77;109357;1253;74247;-67
2023/10/06 00:28:13;;;;;;;6.10;1.60;;;;;;;8.18;100.00;100356.08;109592;1252;66626;-66
2023/10/06 00:31:09;;;;;;;5.50;1.40;;;;;;;8.18;100.00;100355.57;109455;1253;73880;-66
2023/10/06 00:34:00;;;;;;;6.00;1.60;;;;;;;8.17;100.00;100354.41;109582;1252;59671;-67
2023/10/06 00:36:56;;;;;;;6.10;1.50;;;;;;;8.15;100.00;100358.89;109564;1252;60300;-67
2023/10/06 00:39:43;;;;;;;7.90;1.70;;;;;;;8.14;100.00;100357.96;109567;1252;73251;-66
2023/10/06 00:42:31;;;;;;;6.30;1.70;;;;;;;8.12;100.00;100357.00;109412;1253;69147;-66
2023/10/06 00:45:22;;;;;;;6.20;1.90;;;;;;;8.11;100.00;100353.16;109534;1252;72782;-66
2023/10/06 00:48:14;;;;;;;7.30;1.50;;;;;;;8.10;100.00;100355.71;109515;1252;60613;-66
2023/10/06 00:51:04;;;;;;;6.30;1.60;;;;;;;8.09;100.00;100347.98;109444;1253;59012;-67
2023/10/06 00:53:58;;;;;;;7.60;1.60;;;;;;;8.09;100.00;100346.08;109558;1252;71843;-66
2023/10/06 00:56:47;;;;;;;6.40;1.50;;;;;;;8.07;100.00;100347.07;109468;1253;69329;-65
2023/10/06 00:59:37;;;;;;;5.90;1.40;;;;;;;8.04;100.00;100349.89;108686;1254;1002365;-66
2023/10/06 01:02:25;;;;;;;7.70;1.80;;;;;;;8.02;100.00;100346.65;109421;1253;60647;-66
2023/10/06 01:05:15;;;;;;;5.70;1.40;;;;;;;7.99;100.00;100348.23;109305;1253;213245;-65
2023/10/06 01:08:07;;;;;;;5.30;1.40;;;;;;;7.98;100.00;100350.63;109498;1253;73927;-66
2023/10/06 01:11:11;;;;;;;6.30;1.40;;;;;;;7.96;100.00;100356.05;109566;1253;67670;-65
2023/10/06 01:14:00;;;;;;;5.40;1.40;;;;;;;7.95;100.00;100356.63;109526;1253;73830;-67
2023/10/06 01:16:50;;;;;;;5.40;1.30;;;;;;;7.95;100.00;100355.96;109527;1252;59419;-66
2023/10/06 01:19:47;;;;;;;7.40;1.60;;;;;;;7.95;100.00;100356.47;109504;1252;59055;-65
2023/10/06 01:22:41;;;;;;;5.80;1.50;;;;;;;7.97;100.00;100364.83;109392;1253;72940;-65
2023/10/06 01:25:34;;;;;;;7.00;1.60;;;;;;;7.98;100.00;100364.27;108697;1252;1002587;-66
2023/10/06 01:28:23;;;;;;;6.60;1.50;;;;;;;7.97;100.00;100366.23;109534;1252;72540;-65
2023/10/06 01:31:12;;;;;;;5.50;1.60;;;;;;;7.98;100.00;100366.89;109524;1252;60606;-66
2023/10/06 01:34:00;;;;;;;5.60;1.50;;;;;;;7.99;100.00;100363.30;109574;1252;58456;-66
2023/10/06 01:36:54;;;;;;;5.50;1.50;;;;;;;8.00;100.00;100359.68;109539;1252;72777;-66
2023/10/06 01:39:43;;;;;;;6.10;1.70;;;;;;;7.99;100.00;100357.61;109557;1252;66788;-67
2023/10/06 01:42:31;;;;;;;9.00;1.80;;;;;;;7.98;100.00;100360.33;109535;1252;72788;-66
2023/10/06 01:45:21;;;;;;;6.00;1.40;;;;;;;7.96;100.00;100360.81;109445;1253;59542;-67
2023/10/06 01:51:01;;;;;;;6.50;1.60;;;;;;;7.95;100.00;100370.23;109435;1252;71831;-65
2023/10/06 01:53:49;;;;;;;6.70;1.80;;;;;;;7.95;100.00;100371.69;109544;1252;66630;-65
2023/10/06 01:56:40;;;;;;;6.70;1.50;;;;;;;7.95;100.00;100370.23;109449;1252;73546;-65
2023/10/06 01:59:28;;;;;;;6.90;1.70;;;;;;;7.95;100.00;100370.39;109386;1253;57960;-66
2023/10/06 02:02:18;;;;;;;5.90;1.60;;;;;;;7.97;100.00;100366.62;109474;1252;58056;-65
2023/10/06 02:05:12;;;;;;;5.50;1.40;;;;;;;7.99;100.00;100371.77;109460;1253;72763;-65
2023/10/06 02:08:00;;;;;;;7.50;2.20;;;;;;;8.00;100.00;100374.90;109475;1252;68035;-65
2023/10/06 02:10:52;;;;;;;5.70;1.50;;;;;;;8.01;100.00;100373.04;109397;1253;73734;-64
2023/10/06 02:13:39;;;;;;;7.20;1.60;;;;;;;8.01;100.00;100372.67;109384;1253;60298;-65
2023/10/06 02:16:27;;;;;;;6.10;1.60;;;;;;;8.03;100.00;100375.63;109518;1252;58721;-63
2023/10/06 02:19:18;;;;;;;7.10;2.10;;;;;;;8.04;100.00;100375.73;109403;1253;72703;-65
2023/10/06 02:22:06;;;;;;;7.40;1.70;;;;;;;8.05;100.00;100382.00;109564;1252;66907;-65
2023/10/06 02:24:54;;;;;;;6.40;1.50;;;;;;;8.06;100.00;100383.91;109535;1252;72506;-65
2023/10/06 02:27:47;;;;;;;7.30;1.60;;;;;;;8.06;100.00;100385.46;109474;1252;59201;-66
2023/10/06 02:30:37;;;;;;;6.30;1.50;;;;;;;8.07;100.00;100393.04;109621;1252;59112;-65
2023/10/06 02:33:25;;;;;;;5.60;1.50;;;;;;;-100.79;19.20;20079.18;107405;1253;1001736;-66
2023/10/06 02:36:17;;;;;;;7.70;1.90;;;;;;;-128.00;-1.00;-1.00;106735;1254;1013034;-66
2023/10/06 02:39:08;;;;;;;7.60;1.80;;;;;;;-128.00;-1.00;-1.00;106893;1252;1014510;-65
2023/10/06 02:41:58;;;;;;;7.10;2.30;;;;;;;-128.00;-1.00;-1.00;106860;1252;1010051;-65
2023/10/06 02:44:46;;;;;;;7.70;2.30;;;;;;;-128.00;-1.00;-1.00;106815;1252;1011031;-65
2023/10/06 02:47:35;;;;;;;5.90;1.70;;;;;;;-128.00;-1.00;-1.00;106930;1252;1012062;-64
2023/10/06 02:50:23;;;;;;;6.40;1.60;;;;;;;-128.00;-1.00;-1.00;106882;1252;1013403;-66
2023/10/06 02:53:20;;;;;;;7.70;1.60;;;;;;;-128.00;-1.00;-1.00;106879;1252;1012794;-66
2023/10/06 02:56:09;;;;;;;7.20;1.90;;;;;;;-128.00;-1.00;-1.00;106750;1253;1010023;-69
2023/10/06 02:59:07;;;;;;;6.40;1.50;;;;;;;-128.00;-1.00;-1.00;106812;1252;1010869;-65
2023/10/06 03:01:59;;;;;;;7.60;1.80;;;;;;;-128.00;-1.00;-1.00;106918;1252;1013349;-67
2023/10/06 03:04:54;;;;;;;8.30;1.90;;;;;;;-128.00;-1.00;-1.00;106635;1255;1013051;-67
2023/10/06 03:07:46;;;;;;;7.60;1.70;;;;;;;-128.00;-1.00;-1.00;106860;1252;1012870;-66
2023/10/06 03:10:42;;;;;;;6.10;1.50;;;;;;;-128.00;-1.00;-1.00;106855;1252;1010110;-65
2023/10/06 03:13:36;;;;;;;5.90;1.40;;;;;;;-128.00;-1.00;-1.00;106744;1253;1011394;-65
2023/10/06 03:16:25;;;;;;;8.00;1.70;;;;;;;-128.00;-1.00;-1.00;106730;1252;1012830;-65
2023/10/06 03:19:13;;;;;;;6.60;1.60;;;;;;;-128.00;-1.00;-1.00;106868;1252;1012696;-64
2023/10/06 03:22:06;;;;;;;8.60;1.80;;;;;;;-128.00;-1.00;-1.00;106865;1252;1013936;-65
2023/10/06 03:25:00;;;;;;;6.20;1.60;;;;;;;-128.00;-1.00;-1.00;106886;1252;1009951;-65
2023/10/06 03:27:52;;;;;;;5.20;1.40;;;;;;;-128.00;-1.00;-1.00;106764;1252;1010791;-66
2023/10/06 03:30:41;;;;;;;6.80;1.80;;;;;;;-128.00;-1.00;-1.00;106721;1252;1013292;-65
2023/10/06 03:33:29;;;;;;;6.00;1.90;;;;;;;-128.00;-1.00;-1.00;106698;1253;1012372;-65
2023/10/06 03:36:26;;;;;;;6.30;1.60;;;;;;;-128.00;-1.00;-1.00;106674;1253;1012147;-64
2023/10/06 03:39:21;;;;;;;6.10;1.90;;;;;;;-128.00;-1.00;-1.00;106864;1252;1009187;-66
2023/10/06 03:42:17;;;;;;;7.80;1.90;;;;;;;-128.00;-1.00;-1.00;106770;1253;1011624;-65
2023/10/06 03:45:18;;;;;;;5.50;1.80;;;;;;;-128.00;-1.00;-1.00;106790;1252;1013298;-66
2023/10/06 03:48:12;;;;;;;6.20;1.70;;;;;;;-128.00;-1.00;-1.00;106769;1253;1012301;-66
2023/10/06 03:51:02;;;;;;;6.50;1.60;;;;;;;-128.00;-1.00;-1.00;106724;1252;1012448;-67
2023/10/06 03:53:49;;;;;;;7.10;1.80;;;;;;;-128.00;-1.00;-1.00;106840;1252;1009429;-66
2023/10/06 03:56:37;;;;;;;7.10;1.80;;;;;;;-128.00;-1.00;-1.00;106765;1253;1010307;-67
2023/10/06 03:59:24;;;;;;;6.40;1.40;;;;;;;-128.00;-1.00;-1.00;106867;1252;1012366;-69
2023/10/06 04:02:13;;;;;;;9.40;2.00;;;;;;;-128.00;-1.00;-1.00;106608;1254;1012527;-66
2023/10/06 04:05:05;;;;;;;8.50;1.70;;;;;;;-128.00;-1.00;-1.00;106773;1252;1012970;-67
2023/10/06 04:07:52;;;;;;;5.90;1.80;;;;;;;-128.00;-1.00;-1.00;106763;1253;1009630;-68
2023/10/06 04:10:42;;;;;;;6.40;1.60;;;;;;;-128.00;-1.00;-1.00;106743;1252;1010492;-68
2023/10/06 04:13:30;;;;;;;8.80;1.90;;;;;;;-128.00;-1.00;-1.00;106844;1252;1013319;-69
2023/10/06 04:16:19;;;;;;;8.30;1.80;;;;;;;-128.00;-1.00;-1.00;106762;1253;1011831;-70
2023/10/06 04:19:07;;;;;;;8.30;1.80;;;;;;;-128.00;-1.00;-1.00;106806;1253;1012987;-69
2023/10/06 04:21:55;;;;;;;8.40;1.70;;;;;;;-128.00;-1.00;-1.00;106870;1252;1009695;-68
2023/10/06 04:24:44;;;;;;;7.60;1.70;;;;;;;-128.00;-1.00;-1.00;106817;1253;1011136;-69
2023/10/06 04:27:32;;;;;;;7.70;1.70;;;;;;;-128.00;-1.00;-1.00;106870;1252;1012631;-67
2023/10/06 04:30:21;;;;;;;7.00;1.60;;;;;;;-128.00;-1.00;-1.00;106798;1253;1012245;-72
2023/10/06 04:33:14;;;;;;;8.30;1.50;;;;;;;-128.00;-1.00;-1.00;106833;1253;1012158;-71
2023/10/06 04:36:07;;;;;;;7.50;1.60;;;;;;;-128.00;-1.00;-1.00;106876;1252;1009619;-68
2023/10/06 04:38:56;;;;;;;6.40;1.60;;;;;;;-128.00;-1.00;-1.00;106836;1252;1011063;-70
2023/10/06 04:41:44;;;;;;;8.20;1.60;;;;;;;-128.00;-1.00;-1.00;106836;1252;1012442;-67
2023/10/06 04:44:34;;;;;;;9.50;1.80;;;;;;;-128.00;-1.00;-1.00;106727;1252;1012984;-67
2023/10/06 04:47:22;;;;;;;6.50;1.50;;;;;;;-128.00;-1.00;-1.00;106726;1253;1013212;-65
2023/10/06 04:50:11;;;;;;;9.00;2.10;;;;;;;-128.00;-1.00;-1.00;106712;1252;1009961;-70
2023/10/06 04:53:00;;;;;;;7.90;1.60;;;;;;;-128.00;-1.00;-1.00;106653;1253;1011178;-68
2023/10/06 04:55:48;;;;;;;7.60;1.70;;;;;;;-128.00;-1.00;-1.00;106667;1253;1012002;-67
2023/10/06 04:58:36;;;;;;;6.40;1.90;;;;;;;-128.00;-1.00;-1.00;106676;1253;1011790;-68
2023/10/06 05:01:30;;;;;;;8.00;2.20;;;;;;;-128.00;-1.00;-1.00;106755;1253;1012734;-66
2023/10/06 05:04:18;;;;;;;8.90;2.50;;;;;;;-128.00;-1.00;-1.00;106795;1252;1010667;-66
2023/10/06 05:07:06;;;;;;;8.10;2.80;;;;;;;-128.00;-1.00;-1.00;106853;1252;1011194;-67
2023/10/06 05:09:55;;;;;;;8.40;2.70;;;;;;;-128.00;-1.00;-1.00;106824;1252;1012880;-66
2023/10/06 05:12:43;;;;;;;7.20;2.60;;;;;;;-128.00;-1.00;-1.00;106813;1252;1013334;-66
2023/10/06 05:15:30;;;;;;;11.30;2.50;;;;;;;-128.00;-1.00;-1.00;106740;1252;1012837;-66
2023/10/06 05:18:18;;;;;;;10.40;2.20;;;;;;;-128.00;-1.00;-1.00;106787;1253;1009229;-67
2023/10/06 05:21:09;;;;;;;7.10;2.00;;;;;;;-128.00;-1.00;-1.00;106823;1252;1010836;-66
2023/10/06 05:23:57;;;;;;;6.50;1.80;;;;;;;-128.00;-1.00;-1.00;106821;1252;1013676;-67
2023/10/06 05:26:44;;;;;;;9.10;1.90;;;;;;;-128.00;-1.00;-1.00;106806;1252;1012440;-67
2023/10/06 05:29:35;;;;;;;9.10;1.90;;;;;;;-128.00;-1.00;-1.00;106713;1253;1012764;-69
2023/10/06 05:32:24;;;;;;;10.90;2.00;;;;;;;-128.00;-1.00;-1.00;106795;1252;1009721;-69
2023/10/06 05:35:14;;;;;;;8.50;1.90;;;;;;;-128.00;-1.00;-1.00;106828;1252;1010455;-67
2023/10/06 05:38:12;;;;;;;9.10;2.10;;;;;;;-128.00;-1.00;-1.00;106757;1253;1012544;-68
2023/10/06 05:41:02;;;;;;;9.40;3.20;;;;;;;-128.00;-1.00;-1.00;106754;1253;1012354;-70
2023/10/06 05:43:49;;;;;;;8.80;2.10;;;;;;;-128.00;-1.00;-1.00;106774;1252;1013074;-66
2023/10/06 05:46:37;;;;;;;7.30;2.10;;;;;;;-128.00;-1.00;-1.00;106836;1252;1010722;-68
2023/10/06 05:49:25;;;;;;;7.80;1.90;;;;;;;-128.00;-1.00;-1.00;106835;1252;1011028;-66
2023/10/06 05:52:13;;;;;;;8.30;2.40;;;;;;;-128.00;-1.00;-1.00;106690;1252;1012904;-70
2023/10/06 05:55:04;;;;;;;8.70;2.40;;;;;;;-128.00;-1.00;-1.00;106465;1257;1012722;-68
2023/10/06 05:57:55;;;;;;;8.20;2.10;;;;;;;-128.00;-1.00;-1.00;106792;1252;1012602;-66
2023/10/06 06:00:50;;;;;;;8.10;2.10;;;;;;;-128.00;-1.00;-1.00;106767;1252;1009504;-67
2023/10/06 06:03:44;;;;;;;9.40;2.80;;;;;;;-128.00;-1.00;-1.00;106667;1253;1011195;-68
2023/10/06 06:06:36;;;;;;;7.10;2.00;;;;;;;-128.00;-1.00;-1.00;106760;1252;1013463;-69
2023/10/06 06:09:24;;;;;;;9.20;2.20;;;;;;;-128.00;-1.00;-1.00;106810;1253;1013097;-68
2023/10/06 06:12:11;;;;;;;8.40;1.80;;;;;;;-128.00;-1.00;-1.00;106549;1252;1013411;-70
2023/10/06 06:14:59;;;;;;;8.10;2.00;;;;;;;-128.00;-1.00;-1.00;106790;1253;1009130;-68
2023/10/06 06:17:47;;;;;;;9.70;1.90;;;;;;;-128.00;-1.00;-1.00;106748;1253;1010748;-68
2023/10/06 06:20:41;;;;;;;9.50;2.10;;;;;;;-128.00;-1.00;-1.00;106796;1253;1012966;-67
2023/10/06 06:23:33;;;;;;;8.80;2.50;;;;;;;-128.00;-1.00;-1.00;106742;1252;1012757;-69
2023/10/06 06:26:21;;;;;;;9.70;2.30;;;;;;;-128.00;-1.00;-1.00;106796;1252;1013227;-67
2023/10/06 06:29:09;;;;;;;8.50;2.40;;;;;;;-128.00;-1.00;-1.00;106839;1252;1009830;-66
2023/10/06 06:31:57;;;;;;;10.00;2.40;;;;;;;-128.00;-1.00;-1.00;106771;1253;1010823;-67
2023/10/06 06:34:45;;;;;;;9.10;2.20;;;;;;;-128.00;-1.00;-1.00;106824;1252;1012617;-67
2023/10/06 06:37:33;;;;;;;7.20;2.10;;;;;;;-128.00;-1.00;-1.00;106757;1255;1012943;-66
2023/10/06 06:40:21;;;;;;;9.30;2.00;;;;;;;-128.00;-1.00;-1.00;106805;1253;1013332;-67
2023/10/06 06:43:09;;;;;;;7.10;2.00;;;;;;;-128.00;-1.00;-1.00;106804;1252;1009491;-67
2023/10/06 06:45:58;;;;;;;10.30;1.70;;;;;;;-128.00;-1.00;-1.00;106744;1253;1011813;-67
2023/10/06 06:48:46;;;;;;;8.20;2.00;;;;;;;-128.00;-1.00;-1.00;106813;1252;1011813;-67
2023/10/06 06:51:35;;;;;;;8.60;2.10;;;;;;;-128.00;-1.00;-1.00;106861;1252;1012263;-66
2023/10/06 06:54:23;;;;;;;9.70;2.20;;;;;;;-128.00;-1.00;-1.00;106805;1252;1012837;-67
2023/10/06 06:57:12;;;;;;;8.30;2.10;;;;;;;-128.00;-1.00;-1.00;106539;1253;1010214;-66
2023/10/06 07:00:08;;;;;;;7.40;2.20;;;;;;;-128.00;-1.00;-1.00;106762;1253;1010993;-66
2023/10/06 07:02:58;;;;;;;9.50;2.30;;;;;;;-128.00;-1.00;-1.00;106825;1256;1012778;-68
2023/10/06 07:05:47;;;;;;;9.80;2.30;;;;;;;-128.00;-1.00;-1.00;106821;1255;1012321;-65
2023/10/06 07:08:34;;;;;;;10.00;2.00;;;;;;;-128.00;-1.00;-1.00;106827;1253;1012917;-68
2023/10/06 07:11:22;;;;;;;9.00;2.10;;;;;;;-128.00;-1.00;-1.00;106745;1252;1009758;-66
2023/10/06 07:14:10;;;;;;;9.10;2.10;;;;;;;-128.00;-1.00;-1.00;106775;1252;1010243;-66
2023/10/06 07:16:57;;;;;;;8.30;2.10;;;;;;;-128.00;-1.00;-1.00;106823;1252;1013488;-64
2023/10/06 07:19:45;;;;;;;10.70;2.10;;;;;;;-128.00;-1.00;-1.00;106836;1252;1012176;-66
2023/10/06 07:22:34;;;;;;;8.80;2.70;;;;;;;-128.00;-1.00;-1.00;106822;1253;1013187;-65
2023/10/06 07:25:24;;;;;;;9.40;2.00;;;;;;;-128.00;-1.00;-1.00;106780;1253;1009745;-65
2023/10/06 07:28:12;;;;;;;9.80;2.50;;;;;;;-128.00;-1.00;-1.00;106835;1253;1010576;-65
2023/10/06 07:30:59;;;;;;;7.20;2.20;;;;;;;-128.00;-1.00;-1.00;106877;1252;1013159;-63
2023/10/06 07:33:47;;;;;;;10.10;2.40;;;;;;;-128.00;-1.00;-1.00;106816;1256;1012607;-65
2023/10/06 07:36:35;;;;;;;10.00;2.40;;;;;;;-128.00;-1.00;-1.00;106844;1253;1012334;-67
2023/10/06 07:39:23;;;;;;;10.40;2.80;;;;;;;-128.00;-1.00;-1.00;106710;1253;1009014;-65
2023/10/06 07:42:13;;;;;;;10.50;2.60;;;;;;;-128.00;-1.00;-1.00;106671;1252;1010499;-65
2023/10/06 07:45:04;;;;;;;9.60;2.40;;;;;;;-128.00;-1.00;-1.00;106806;1253;1013462;-65
2023/10/06 07:47:53;;;;;;;9.60;2.60;;;;;;;-128.00;-1.00;-1.00;106849;1252;1012812;-64
2023/10/06 07:50:41;;;;;;;10.00;2.70;;;;;;;-128.00;-1.00;-1.00;106624;1253;1012415;-66
2023/10/06 07:53:29;;;;;;;9.70;2.50;;;;;;;-128.00;-1.00;-1.00;106644;1254;1009601;-66
2023/10/06 07:56:18;;;;;;;8.90;2.20;;;;;;;-128.00;-1.00;-1.00;106498;1255;1012356;-68
2023/10/06 07:59:06;;;;;;;9.30;2.50;;;;;;;-128.00;-1.00;-1.00;106622;1254;1012442;-66
2023/10/06 08:01:54;;;;;;;11.50;2.50;;;;;;;-128.00;-1.00;-1.00;106655;1255;1013069;-66
2023/10/06 08:04:42;;;;;;;7.40;2.20;;;;;;;-128.00;-1.00;-1.00;106577;1254;1012478;-64
2023/10/06 08:07:30;;;;;;;11.40;2.70;;;;;;;-128.00;-1.00;-1.00;106589;1254;1009304;-65
2023/10/06 08:10:19;;;;;;;11.60;2.50;;;;;;;-128.00;-1.00;-1.00;106492;1254;1011338;-67
2023/10/06 08:13:07;;;;;;;11.00;2.90;;;;;;;-128.00;-1.00;-1.00;106602;1254;1012492;-67
2023/10/06 08:15:55;;;;;;;9.50;3.00;;;;;;;-128.00;-1.00;-1.00;106536;1254;1012481;-66
2023/10/06 08:18:42;;;;;;;10.90;2.80;;;;;;;-128.00;-1.00;-1.00;106655;1254;1012469;-66
2023/10/06 08:21:30;;;;;;;9.90;2.20;;;;;;;-128.00;-1.00;-1.00;106604;1254;1010678;-66
2023/10/06 08:24:17;;;;;;;9.10;2.60;;;;;;;-128.00;-1.00;-1.00;106653;1254;1011109;-66
2023/10/06 08:27:07;;;;;;;11.40;2.80;;;;;;;-128.00;-1.00;-1.00;106614;1254;1013057;-66
2023/10/06 08:29:55;;;;;;;10.10;2.80;;;;;;;-128.00;-1.00;-1.00;106592;1258;1012388;-68
2023/10/06 08:32:48;;;;;;;8.60;2.20;;;;;;;-128.00;-1.00;-1.00;106444;1254;1013118;-68
2023/10/06 08:35:36;;;;;;;14.20;2.40;;;;;;;-128.00;-1.00;-1.00;106509;1254;1009283;-64
2023/10/06 08:38:24;;;;;;;14.90;3.30;;;;;;;-128.00;-1.00;-1.00;106464;1254;1011673;-66
2023/10/06 08:41:12;;;;;;;10.20;2.00;;;;;;;-128.00;-1.00;-1.00;106638;1255;1011875;-68
2023/10/06 08:44:02;;;;;;;11.60;3.30;;;;;;;-128.00;-1.00;-1.00;106431;1254;1013038;-67
2023/10/06 08:46:51;;;;;;;10.50;2.40;;;;;;;-128.00;-1.00;-1.00;106412;1254;1012976;-67
2023/10/06 08:49:40;;;;;;;10.50;2.40;;;;;;;-128.00;-1.00;-1.00;106559;1254;1009520;-65
2023/10/06 08:52:30;;;;;;;8.20;1.90;;;;;;;-128.00;-1.00;-1.00;106655;1253;1011136;-65
2023/10/06 08:55:27;;;;;;;12.60;2.70;;;;;;;-128.00;-1.00;-1.00;106747;1253;1012084;-66
2023/10/06 08:58:17;;;;;;;9.30;2.20;;;;;;;-128.00;-1.00;-1.00;106720;1253;1013336;-67
2023/10/06 09:01:06;;;;;;;8.90;1.90;;;;;;;-128.00;-1.00;-1.00;106900;1252;1013532;-68
2023/10/06 09:03:55;;;;;;;9.10;2.00;;;;;;;-128.00;-1.00;-1.00;106822;1252;1009283;-66
2023/10/06 09:07:08;;;;;;;10.70;2.10;;;;;;;-128.00;-1.00;-1.00;106795;1253;1010634;-65
2023/10/06 09:09:56;;;;;;;9.70;2.00;;;;;;;-128.00;-1.00;-1.00;106751;1252;1012928;-67
2023/10/06 09:12:45;;;;;;;11.40;2.00;;;;;;;-128.00;-1.00;-1.00;106796;1253;1012123;-65
2023/10/06 09:15:39;;;;;;;11.40;1.90;;;;;;;-128.00;-1.00;-1.00;106779;1253;1012552;-67
2023/10/06 09:18:27;;;;;;;10.30;2.10;;;;;;;-128.00;-1.00;-1.00;106814;1252;1010831;-65
2023/10/06 09:21:19;;;;;;;9.80;2.20;;;;;;;-128.00;-1.00;-1.00;106809;1253;1010898;-65
2023/10/06 09:24:19;;;;;;;13.30;2.20;;;;;;;-128.00;-1.00;-1.00;106762;1252;1012472;-65
2023/10/06 09:27:21;;;;;;;15.10;5.00;;;;;;;-128.00;-1.00;-1.00;106653;1252;1012411;-67
2023/10/06 09:30:13;;;;;;;14.30;4.70;;;;;;;-128.00;-1.00;-1.00;106783;1253;1012288;-66
2023/10/06 09:33:02;;;;;;;10.20;2.30;;;;;;;-128.00;-1.00;-1.00;106779;1253;1009091;-66
2023/10/06 09:36:11;;;;;;;9.60;2.10;;;;;;;-128.00;-1.00;-1.00;106615;1252;1011210;-66
2023/10/06 09:39:03;;;;;;;10.30;2.00;;;;;;;-128.00;-1.00;-1.00;106622;1253;1012749;-67
2023/10/06 09:41:54;;;;;;;10.90;2.20;;;;;;;-128.00;-1.00;-1.00;106745;1256;1012271;-65
2023/10/06 09:44:44;;;;;;;14.50;2.40;;;;;;;-128.00;-1.00;-1.00;106833;1253;1013306;-65
2023/10/06 09:47:38;;;;;;;10.50;2.20;;;;;;;-128.00;-1.00;-1.00;106748;1253;1010097;-66
2023/10/06 09:50:28;;;;;;;11.00;2.10;;;;;;;-128.00;-1.00;-1.00;106658;1252;1011256;-69
2023/10/06 09:53:16;;;;;;;12.00;2.10;;;;;;;-128.00;-1.00;-1.00;106603;1253;1012538;-66
2023/10/06 09:56:07;;;;;;;13.10;2.40;;;;;;;-128.00;-1.00;-1.00;106733;1257;1012153;-66
2023/10/06 09:58:55;;;;;;;11.30;2.50;;;;;;;-128.00;-1.00;-1.00;106823;1252;1013616;-65
2023/10/06 10:01:47;;;;;;;9.90;1.90;;;;;;;-128.00;-1.00;-1.00;106737;1253;1009285;-65
2023/10/06 10:04:35;;;;;;;9.50;2.30;;;;;;;-128.00;-1.00;-1.00;106694;1253;1012182;-67
2023/10/06 10:07:23;;;;;;;8.70;2.00;;;;;;;-128.00;-1.00;-1.00;106831;1253;1011833;-66
2023/10/06 10:10:11;;;;;;;9.90;2.10;;;;;;;-128.00;-1.00;-1.00;106582;1257;1012865;-66
2023/10/06 10:13:43;;;;;;;9.30;2.10;;;;;;;-128.00;-1.00;-1.00;106710;1253;1013715;-67
2023/10/06 10:17:07;;;;;;;8.60;2.00;;;;;;;-128.00;-1.00;-1.00;106809;1253;1010038;-67
2023/10/06 10:19:55;;;;;;;9.20;1.90;;;;;;;-128.00;-1.00;-1.00;106204;1259;1011303;-67
2023/10/06 10:22:43;;;;;;;11.80;2.40;;;;;;;-128.00;-1.00;-1.00;106326;1259;1014022;-65
2023/10/06 10:25:30;;;;;;;9.60;2.00;;;;;;;-128.00;-1.00;-1.00;106268;1259;1013290;-66
2023/10/06 10:28:27;;;;;;;9.20;2.10;;;;;;;-128.00;-1.00;-1.00;106289;1259;1014169;-66
2023/10/06 10:31:18;;;;;;;9.30;2.20;;;;;;;-128.00;-1.00;-1.00;106263;1258;1010179;-66
2023/10/06 10:34:08;;;;;;;8.80;2.20;;;;;;;-128.00;-1.00;-1.00;106332;1259;1011888;-65
2023/10/06 10:37:12;;;;;;;11.00;2.20;;;;;;;-128.00;-1.00;-1.00;106365;1259;1013112;-67
2023/10/06 10:39:59;;;;;;;8.30;2.00;;;;;;;-128.00;-1.00;-1.00;106334;1259;1013348;-63
2023/10/06 10:42:55;;;;;;;11.00;2.30;;;;;;;-128.00;-1.00;-1.00;106288;1258;1013442;-65
2023/10/06 10:45:44;;;;;;;9.30;1.80;;;;;;;-128.00;-1.00;-1.00;106306;1259;1009234;-64
2023/10/06 10:48:37;;;;;;;6.40;2.30;;;;;;;-128.00;-1.00;-1.00;106293;1259;1010874;-66
2023/10/06 10:51:25;;;;;;;9.20;2.00;;;;;;;-128.00;-1.00;-1.00;106273;1263;1012615;-65
2023/10/06 10:54:14;;;;;;;6.30;2.00;;;;;;;-128.00;-1.00;-1.00;106324;1258;1012829;-66
2023/10/06 10:57:06;;;;;;;8.20;2.20;;;;;;;-128.00;-1.00;-1.00;106437;1253;1013131;-67
2023/10/06 11:02:57;;;;;;;8.30;2.20;;;;;;;-128.00;-1.00;-1.00;106850;1253;1010780;-67
2023/10/06 11:05:45;;;;;;;9.20;2.90;;;;;;;-128.00;-1.00;-1.00;106724;1253;1013169;-65
2023/10/06 11:08:39;;;;;;;8.00;2.40;;;;;;;-128.00;-1.00;-1.00;106757;1253;1012040;-67
2023/10/06 11:11:28;;;;;;;9.20;2.90;;;;;;;-128.00;-1.00;-1.00;106658;1253;1012116;-65
2023/10/06 11:14:16;;;;;;;8.00;2.30;;;;;;;-128.00;-1.00;-1.00;106804;1253;1009338;-68
2023/10/06 11:17:05;;;;;;;8.50;3.40;;;;;;;-128.00;-1.00;-1.00;106787;1253;1011332;-64
2023/10/06 11:20:22;;;;;;;9.30;3.40;;;;;;;-128.00;-1.00;-1.00;106821;1253;1013072;-65
2023/10/06 11:23:11;;;;;;;12.70;4.00;;;;;;;-128.00;-1.00;-1.00;106741;1253;1012513;-70
2023/10/06 11:25:59;;;;;;;9.40;3.50;;;;;;;-128.00;-1.00;-1.00;106586;1253;1012880;-66
2023/10/06 11:28:50;;;;;;;10.20;3.80;;;;;;;-128.00;-1.00;-1.00;106819;1253;1009338;-67
2023/10/06 11:31:39;;;;;;;8.60;3.30;;;;;;;-128.00;-1.00;-1.00;106780;1253;1010483;-68
2023/10/06 11:34:29;;;;;;;11.10;3.90;;;;;;;-128.00;-1.00;-1.00;106611;1253;1012735;-67
2023/10/06 11:37:24;;;;;;;10.70;3.80;;;;;;;-128.00;-1.00;-1.00;106772;1253;1012565;-66
2023/10/06 11:40:15;;;;;;;9.00;3.60;;;;;;;-128.00;-1.00;-1.00;106614;1253;1012358;-67
2023/10/06 11:43:12;;;;;;;8.30;3.20;;;;;;;-128.00;-1.00;-1.00;106697;1252;1010923;-65
2023/10/06 11:46:05;;;;;;;8.80;3.20;;;;;;;-128.00;-1.00;-1.00;106736;1257;1011551;-70
2023/10/06 11:49:07;;;;;;;10.60;3.80;;;;;;;-128.00;-1.00;-1.00;106858;1253;1012697;-66
2023/10/06 11:51:56;;;;;;;9.70;3.90;;;;;;;-128.00;-1.00;-1.00;106647;1253;1012519;-67
2023/10/06 11:54:46;;;;;;;8.50;3.00;;;;;;;-128.00;-1.00;-1.00;106557;1253;1012509;-67
2023/10/06 11:57:51;;;;;;;9.60;3.50;;;;;;;-128.00;-1.00;-1.00;106749;1253;1009551;-66
2023/10/06 12:00:45;;;;;;;9.00;3.40;;;;;;;-128.00;-1.00;-1.00;106785;1253;1010967;-67
2023/10/06 12:03:42;;;;;;;7.90;3.50;;;;;;;-128.00;-1.00;-1.00;106626;1253;1012753;-65
2023/10/06 12:06:40;;;;;;;12.10;3.70;;;;;;;-128.00;-1.00;-1.00;106656;1256;1011633;-64
2023/10/06 12:09:35;;;;;;;11.00;4.10;;;;;;;-128.00;-1.00;-1.00;106666;1253;1012516;-65
2023/10/06 12:12:23;;;;;;;11.00;4.10;;;;;;;-128.00;-1.00;-1.00;106651;1253;1009883;-66
2023/10/06 12:15:15;;;;;;;8.20;3.40;;;;;;;-128.00;-1.00;-1.00;106608;1253;1010447;-65
2023/10/06 12:18:04;;;;;;;10.80;4.80;;;;;;;-128.00;-1.00;-1.00;106834;1252;1013134;-68
2023/10/06 12:20:52;;;;;;;10.80;3.80;;;;;;;-128.00;-1.00;-1.00;106796;1257;1011951;-66
2023/10/06 12:23:41;;;;;;;9.80;3.50;;;;;;;-128.00;-1.00;-1.00;106799;1253;1012666;-68
2023/10/06 12:26:33;;;;;;;8.10;3.30;;;;;;;-128.00;-1.00;-1.00;106729;1252;1009306;-66
2023/10/06 12:29:21;;;;;;;10.70;4.20;;;;;;;-128.00;-1.00;-1.00;106861;1252;1011020;-67
2023/10/06 12:32:08;;;;;;;10.50;4.10;;;;;;;-128.00;-1.00;-1.00;106817;1252;1013057;-65
2023/10/06 12:34:59;;;;;;;8.80;4.00;;;;;;;-128.00;-1.00;-1.00;106659;1253;1012097;-65
2023/10/06 12:37:48;;;;;;;12.60;4.20;;;;;;;-128.00;-1.00;-1.00;106784;1253;1012039;-66
2023/10/06 12:40:38;;;;;;;11.10;4.00;;;;;;;-128.00;-1.00;-1.00;106749;1253;1010107;-65
2023/10/06 12:43:25;;;;;;;7.90;3.70;;;;;;;-128.00;-1.00;-1.00;106800;1253;1011548;-69
2023/10/06 12:46:13;;;;;;;10.30;3.90;;;;;;;-128.00;-1.00;-1.00;106750;1252;1012621;-65
2023/10/06 12:49:06;;;;;;;9.20;4.10;;;;;;;-128.00;-1.00;-1.00;106820;1252;1013672;-66
2023/10/06 12:51:55;;;;;;;10.70;4.10;;;;;;;-128.00;-1.00;-1.00;106739;1254;1012690;-67
2023/10/06 12:54:44;;;;;;;9.80;3.90;;;;;;;-128.00;-1.00;-1.00;106717;1253;1009700;-68
2023/10/06 12:57:34;;;;;;;12.40;5.10;;;;;;;-128.00;-1.00;-1.00;106781;1253;1010605;-65
2023/10/06 13:00:23;;;;;;;10.10;4.00;;;;;;;-128.00;-1.00;-1.00;106731;1253;1012766;-63
2023/10/06 13:03:17;;;;;;;12.00;4.70;;;;;;;-128.00;-1.00;-1.00;106767;1257;1013228;-66
2023/10/06 13:06:05;;;;;;;9.30;3.70;;;;;;;-128.00;-1.00;-1.00;106580;1253;1012657;-68
2023/10/06 13:08:54;;;;;;;11.80;4.30;;;;;;;-128.00;-1.00;-1.00;106735;1253;1010659;-66